Time;durP1;ratioP1;P1;durP2;ratioP2;P2;SDS_P1;SDS_P2;PMS_P1;PMS_P2;Temp;Humidity;BMP_temperature;BMP_pressure;BME280_temperature;BME280_humidity;BME280_pressure;Samples;Min_cycle;Max_cycle;Signal;HPM_P1;HPM_P2
2022/12/05 00:00:54;;;;;;;31.75;16.48;;;6.70;59.20;;;;;;4984850;28;20046;-44
2022/12/05 00:03:22;;;;;;;30.42;16.52;;;6.60;59.20;;;;;;4984251;28;20050;-49
2022/12/05 00:05:49;;;;;;;30.42;16.73;;;6.60;59.20;;;;;;4984247;28;20513;-45
2022/12/05 00:08:16;;;;;;;30.65;16.30;;;6.60;59.20;;;;;;4983148;28;20061;-44
2022/12/05 00:10:44;;;;;;;36.03;17.60;;;6.70;59.20;;;;;;4983789;28;20066;-46
2022/12/05 00:13:11;;;;;;;36.83;17.02;;;6.60;59.20;;;;;;4987135;28;20066;-46
2022/12/05 00:15:39;;;;;;;28.88;15.70;;;6.70;59.20;;;;;;4985222;28;20058;-45
2022/12/05 00:18:08;;;;;;;33.42;15.88;;;6.70;59.10;;;;;;4985077;28;20393;-52
2022/12/05 00:20:35;;;;;;;31.33;17.35;;;6.70;59.10;;;;;;4981796;28;20714;-47
2022/12/05 00:23:02;;;;;;;30.15;16.15;;;6.70;59.10;;;;;;4982460;28;20054;-43
2022/12/05 00:25:30;;;;;;;35.20;18.30;;;6.70;59.10;;;;;;4984488;28;21015;-45
2022/12/05 00:27:57;;;;;;;36.97;17.73;;;6.70;59.00;;;;;;4984332;28;20062;-45
2022/12/05 00:30:24;;;;;;;30.88;16.15;;;6.70;58.90;;;;;;4984333;28;20054;-46
2022/12/05 00:32:51;;;;;;;28.63;15.30;;;6.70;58.90;;;;;;4984090;28;20069;-44
2022/12/05 00:35:20;;;;;;;39.08;18.60;;;6.70;58.90;;;;;;4991016;28;20406;-45
2022/12/05 00:37:47;;;;;;;31.80;16.15;;;6.70;58.90;;;;;;4983167;28;20062;-45
2022/12/05 00:40:14;;;;;;;32.45;15.98;;;6.70;58.90;;;;;;4991533;28;20057;-49
2022/12/05 00:42:42;;;;;;;28.40;15.23;;;6.60;58.80;;;;;;4983577;28;20050;-47
2022/12/05 00:45:10;;;;;;;33.08;16.05;;;6.70;58.90;;;;;;4984469;28;20061;-46
2022/12/05 00:47:37;;;;;;;28.33;15.15;;;6.60;58.90;;;;;;4984543;28;20062;-45
2022/12/05 00:50:06;;;;;;;32.60;16.25;;;6.60;58.90;;;;;;4983505;28;20062;-47
2022/12/05 00:52:34;;;;;;;30.52;17.00;;;6.60;58.80;;;;;;4981690;28;20050;-47
2022/12/05 00:55:02;;;;;;;30.67;16.17;;;6.60;58.80;;;;;;4983628;28;20065;-48
2022/12/05 00:57:29;;;;;;;33.47;16.73;;;6.60;58.80;;;;;;4984283;28;20414;-47
2022/12/05 00:59:56;;;;;;;25.38;13.82;;;6.60;58.80;;;;;;4983461;28;20061;-49
2022/12/05 01:02:24;;;;;;;25.65;14.98;;;6.60;58.80;;;;;;4981055;28;20058;-43
2022/12/05 01:04:51;;;;;;;26.45;14.68;;;6.60;58.80;;;;;;4982601;28;20502;-47
2022/12/05 01:07:18;;;;;;;28.52;15.20;;;6.60;58.70;;;;;;4982989;28;20054;-50
2022/12/05 01:09:47;;;;;;;26.58;14.32;;;6.60;58.70;;;;;;4982860;28;20061;-46
2022/12/05 01:12:14;;;;;;;23.77;13.60;;;6.60;58.70;;;;;;4981779;28;20054;-46
2022/12/05 01:14:41;;;;;;;30.42;15.77;;;6.60;58.80;;;;;;4983486;28;20058;-45
2022/12/05 01:17:09;;;;;;;30.42;15.95;;;6.60;58.80;;;;;;4982867;28;20050;-47
2022/12/05 01:19:37;;;;;;;29.20;15.70;;;6.60;58.80;;;;;;4984411;28;20062;-47
2022/12/05 01:22:04;;;;;;;29.65;15.52;;;6.60;58.80;;;;;;4982172;28;20424;-47
2022/12/05 01:24:31;;;;;;;27.10;14.88;;;6.60;58.80;;;;;;4983218;28;20047;-49
2022/12/05 01:27:00;;;;;;;27.70;14.98;;;6.60;58.80;;;;;;4983287;28;20054;-46
2022/12/05 01:29:28;;;;;;;28.23;14.18;;;6.60;58.80;;;;;;4983593;28;20100;-44
2022/12/05 01:31:55;;;;;;;28.48;14.48;;;6.60;58.70;;;;;;4982817;28;20054;-47
2022/12/05 01:34:22;;;;;;;24.30;12.65;;;6.60;58.70;;;;;;4984148;28;20278;-46
2022/12/05 01:36:50;;;;;;;23.23;13.25;;;6.60;58.60;;;;;;4983628;28;20057;-48
2022/12/05 01:39:17;;;;;;;21.85;13.10;;;6.60;58.60;;;;;;4991365;28;20438;-44
2022/12/05 01:41:48;;;;;;;19.75;11.50;;;6.60;58.60;;;;;;4980436;28;20043;-51
2022/12/05 01:44:52;;;;;;;17.42;10.80;;;6.50;58.50;;;;;;4982673;28;20403;-46
2022/12/05 01:47:23;;;;;;;14.13;9.52;;;6.50;58.50;;;;;;4983524;28;20813;-43
2022/12/05 01:49:51;;;;;;;13.25;8.63;;;6.50;58.40;;;;;;4988553;28;20058;-42
2022/12/05 01:52:23;;;;;;;13.68;9.02;;;6.50;58.40;;;;;;4980203;28;20046;-48
2022/12/05 01:54:54;;;;;;;26.73;12.25;;;6.50;58.40;;;;;;4982742;28;20422;-43
2022/12/05 01:57:23;;;;;;;29.95;12.55;;;6.50;58.40;;;;;;4984268;28;20050;-47
2022/12/05 01:59:55;;;;;;;35.60;15.68;;;6.50;58.40;;;;;;4983659;28;20054;-42
2022/12/05 02:02:24;;;;;;;29.67;14.48;;;6.50;58.30;;;;;;4981823;28;20387;-44
2022/12/05 02:04:58;;;;;;;28.48;13.75;;;6.50;58.40;;;;;;4981126;28;20493;-44
2022/12/05 02:07:26;;;;;;;20.55;10.32;;;6.50;58.40;;;;;;4981598;28;20101;-49
2022/12/05 02:09:53;;;;;;;16.63;9.45;;;6.40;58.40;;;;;;4981517;28;20484;-45
2022/12/05 02:12:22;;;;;;;15.48;9.15;;;6.40;58.40;;;;;;4975951;28;20057;-42
2022/12/05 02:15:14;;;;;;;15.75;8.65;;;6.40;58.40;;;;;;4982478;28;20058;-44
2022/12/05 02:17:52;;;;;;;15.07;9.15;;;6.40;58.50;;;;;;4982199;28;20050;-46
2022/12/05 02:20:33;;;;;;;14.23;8.77;;;6.40;58.50;;;;;;4980719;28;20062;-48
2022/12/05 02:23:22;;;;;;;14.38;8.93;;;6.40;58.50;;;;;;4979542;28;20398;-44
2022/12/05 02:26:15;;;;;;;13.98;9.13;;;6.40;58.50;;;;;;4981932;28;20066;-43
2022/12/05 02:29:22;;;;;;;14.50;8.98;;;6.40;58.50;;;;;;4966927;28;20058;-44
2022/12/05 02:31:56;;;;;;;12.05;8.00;;;6.40;58.50;;;;;;4955383;28;20050;-45
2022/12/05 02:34:31;;;;;;;13.82;9.30;;;6.40;58.40;;;;;;4979800;28;20494;-45
2022/12/05 02:37:03;;;;;;;13.23;9.00;;;6.40;58.40;;;;;;4978246;28;20057;-46
2022/12/05 02:39:41;;;;;;;13.20;8.90;;;6.40;58.40;;;;;;4977733;28;20062;-46
2022/12/05 02:42:15;;;;;;;12.35;7.97;;;6.40;58.40;;;;;;4979054;28;20061;-47
2022/12/05 02:44:48;;;;;;;12.68;8.68;;;6.40;58.40;;;;;;4981353;28;20494;-45
2022/12/05 02:47:21;;;;;;;13.10;8.43;;;6.40;58.40;;;;;;4981093;28;20057;-49
2022/12/05 02:49:51;;;;;;;12.43;7.50;;;6.40;58.50;;;;;;4980859;28;20054;-45
2022/12/05 02:52:19;;;;;;;66.13;9.18;;;6.40;58.50;;;;;;4977370;28;20515;-47
2022/12/05 02:54:49;;;;;;;122.57;9.82;;;6.40;58.50;;;;;;4978964;28;20058;-49
2022/12/05 02:57:17;;;;;;;181.05;11.25;;;6.40;58.30;;;;;;4981409;28;20059;-46
2022/12/05 02:59:45;;;;;;;95.57;7.80;;;6.40;58.20;;;;;;4984502;28;20513;-41
2022/12/05 03:05:10;;;;;;;32.20;6.88;;;6.30;58.10;;;;;;5055737;28;21004;-48
2022/12/05 03:07:40;;;;;;;93.75;7.93;;;6.30;58.20;;;;;;5036763;28;20049;-43
2022/12/05 03:10:08;;;;;;;183.88;10.60;;;6.20;58.10;;;;;;5037615;28;20489;-48
2022/12/05 03:12:41;;;;;;;291.00;12.38;;;6.20;58.10;;;;;;5036237;28;20787;-43
2022/12/05 03:15:15;;;;;;;284.40;12.73;;;6.20;58.20;;;;;;5038429;28;21066;-43
2022/12/05 03:17:48;;;;;;;106.15;8.45;;;6.20;58.20;;;;;;5038490;28;20480;-42
2022/12/05 03:20:27;;;;;;;352.67;13.02;;;6.10;58.10;;;;;;5036867;28;20087;-44
2022/12/05 03:22:59;;;;;;;182.25;11.57;;;6.10;58.20;;;;;;5035849;28;21073;-42
2022/12/05 03:25:34;;;;;;;303.95;14.60;;;6.00;58.20;;;;;;5039774;28;20056;-45
2022/12/05 03:28:06;;;;;;;247.48;12.93;;;6.00;58.30;;;;;;5037901;28;20104;-48
2022/12/05 03:30:38;;;;;;;66.63;8.45;;;5.90;58.30;;;;;;5034250;28;20626;-45
2022/12/05 03:33:10;;;;;;;283.27;12.63;;;5.90;58.40;;;;;;5026827;28;20049;-45
2022/12/05 03:35:42;;;;;;;330.15;13.55;;;5.80;58.40;;;;;;5035442;28;20417;-44
2022/12/05 03:38:13;;;;;;;63.15;8.40;;;5.80;58.60;;;;;;5035434;28;20057;-44
2022/12/05 03:40:47;;;;;;;75.93;8.95;;;5.80;58.60;;;;;;5035395;28;20080;-44
2022/12/05 03:43:17;;;;;;;;;;;5.70;58.70;;;;;;5036400;28;20053;-44
2022/12/05 03:45:48;;;;;;;18.45;7.97;;;5.80;58.90;;;;;;5032263;28;19925;-49
2022/12/05 03:48:21;;;;;;;28.10;8.70;;;5.70;58.70;;;;;;5035169;28;20053;-47
2022/12/05 03:50:53;;;;;;;10.98;7.63;;;5.70;58.80;;;;;;5027566;28;20056;-45
2022/12/05 03:53:25;;;;;;;12.52;7.80;;;5.70;58.90;;;;;;5034857;28;20523;-43
2022/12/05 03:55:59;;;;;;;10.23;6.97;;;5.70;59.00;;;;;;5032891;28;20053;-44
2022/12/05 03:58:31;;;;;;;55.60;9.50;;;5.70;59.00;;;;;;5035336;28;20057;-44
2022/12/05 04:01:00;;;;;;;33.83;8.07;;;5.70;59.10;;;;;;5035696;28;20634;-46
2022/12/05 04:03:38;;;;;;;14.63;8.25;;;5.70;59.00;;;;;;5027288;28;20468;-47
2022/12/05 04:06:12;;;;;;;38.80;7.93;;;5.70;59.00;;;;;;5014844;28;20406;-45
2022/12/05 04:08:45;;;;;;;27.23;8.88;;;5.70;59.10;;;;;;5012963;28;20073;-49
2022/12/05 04:11:16;;;;;;;17.98;8.27;;;5.70;59.10;;;;;;5008055;28;20072;-44
2022/12/05 04:13:48;;;;;;;12.82;8.18;;;5.70;59.10;;;;;;5018139;28;20405;-45
2022/12/05 04:19:08;;;;;;;14.15;7.15;;;5.70;59.20;;;;;;5005254;28;20054;-42
2022/12/05 04:21:40;;;;;;;14.10;7.65;;;5.70;59.20;;;;;;5001591;28;20050;-41
2022/12/05 04:27:06;;;;;;;37.83;7.22;;;5.70;59.30;;;;;;5010158;28;20058;-42
2022/12/05 04:29:40;;;;;;;27.55;7.30;;;5.70;59.30;;;;;;5005073;28;20065;-43
2022/12/05 04:32:13;;;;;;;10.77;6.63;;;5.70;59.30;;;;;;4999187;28;20061;-49
2022/12/05 04:34:44;;;;;;;79.72;7.50;;;5.70;59.30;;;;;;4998607;28;20056;-43
2022/12/05 04:37:18;;;;;;;8.32;6.15;;;5.70;59.30;;;;;;4986654;28;20054;-43
2022/12/05 04:39:48;;;;;;;;;;;5.70;59.40;;;;;;4985406;28;20042;-47
2022/12/05 04:42:19;;;;;;;9.02;6.10;;;5.70;59.50;;;;;;4991502;28;19921;-42
2022/12/05 04:44:50;;;;;;;12.88;6.53;;;5.70;59.30;;;;;;4992462;28;20060;-44
2022/12/05 04:47:21;;;;;;;26.73;6.70;;;5.70;59.30;;;;;;4990453;28;20060;-46
2022/12/05 04:49:48;;;;;;;11.85;6.05;;;5.70;59.30;;;;;;5003203;28;20493;-44
2022/12/05 04:52:17;;;;;;;33.50;6.82;;;5.70;59.20;;;;;;4994383;28;20068;-44
2022/12/05 04:54:49;;;;;;;48.65;8.07;;;5.70;59.20;;;;;;5002891;28;20049;-43
2022/12/05 04:57:21;;;;;;;7.90;5.85;;;5.70;59.20;;;;;;5003852;28;20520;-42
2022/12/05 04:59:48;;;;;;;8.00;5.68;;;5.70;59.30;;;;;;5005440;28;20053;-43
2022/12/05 05:02:21;;;;;;;7.57;5.05;;;5.70;59.30;;;;;;4994106;28;20054;-47
2022/12/05 05:04:52;;;;;;;7.43;5.63;;;5.70;59.40;;;;;;5003779;28;20057;-47
2022/12/05 05:07:21;;;;;;;7.50;5.65;;;5.70;59.50;;;;;;4997834;28;20497;-42
2022/12/05 05:09:48;;;;;;;8.88;6.55;;;5.70;59.50;;;;;;5000133;28;20485;-45
2022/12/05 05:12:15;;;;;;;7.55;5.55;;;5.80;59.50;;;;;;5000723;28;20069;-43
2022/12/05 05:14:42;;;;;;;9.43;5.80;;;5.80;59.50;;;;;;5004647;28;20058;-46
2022/12/05 05:17:10;;;;;;;11.02;6.32;;;5.80;59.50;;;;;;4988463;28;20058;-46
2022/12/05 05:19:37;;;;;;;9.82;6.30;;;5.80;59.50;;;;;;5000289;28;20057;-48
2022/12/05 05:22:04;;;;;;;9.52;5.88;;;5.80;59.50;;;;;;4999198;28;20062;-49
2022/12/05 05:24:33;;;;;;;8.18;5.63;;;5.90;59.60;;;;;;4996807;28;20050;-46
2022/12/05 05:27:00;;;;;;;6.80;5.20;;;5.90;60.10;;;;;;4997060;28;20054;-44
2022/12/05 05:29:27;;;;;;;8.70;6.25;;;5.90;59.50;;;;;;4992322;28;20053;-48
2022/12/05 05:31:54;;;;;;;9.55;6.20;;;6.00;59.50;;;;;;5000301;28;20064;-43
2022/12/05 05:34:22;;;;;;;13.30;7.35;;;6.00;59.50;;;;;;5000408;28;20417;-47
2022/12/05 05:36:51;;;;;;;11.73;7.53;;;6.00;59.40;;;;;;5003367;28;20070;-41
2022/12/05 05:39:19;;;;;;;9.45;6.20;;;6.00;59.40;;;;;;4998866;28;21569;-42
2022/12/05 05:41:47;;;;;;;10.65;7.00;;;6.10;59.40;;;;;;5001225;28;20064;-44
2022/12/05 05:44:14;;;;;;;10.80;7.00;;;6.00;59.30;;;;;;4995757;28;20054;-45
2022/12/05 05:46:42;;;;;;;10.02;7.00;;;6.10;59.30;;;;;;4995943;28;20049;-49
2022/12/05 05:49:10;;;;;;;12.23;8.00;;;6.10;59.30;;;;;;4996388;28;20049;-45
2022/12/05 05:51:37;;;;;;;25.10;7.15;;;6.10;59.20;;;;;;4989035;28;20054;-43
2022/12/05 05:54:05;;;;;;;7.95;6.13;;;6.10;59.10;;;;;;4995329;28;20843;-46
2022/12/05 05:56:32;;;;;;;10.48;6.03;;;6.10;59.10;;;;;;5000146;28;20057;-42
2022/12/05 05:59:02;;;;;;;9.80;6.63;;;6.10;59.00;;;;;;5003706;28;20061;-46
2022/12/05 06:01:30;;;;;;;9.32;6.03;;;6.10;59.00;;;;;;4999666;28;20061;-46
2022/12/05 06:03:58;;;;;;;7.90;6.10;;;6.10;59.00;;;;;;5002377;28;20054;-50
2022/12/05 06:06:25;;;;;;;10.25;6.80;;;6.10;59.00;;;;;;4999272;28;20049;-43
2022/12/05 06:08:53;;;;;;;8.68;6.43;;;6.10;59.00;;;;;;5001494;28;20437;-42
2022/12/05 06:11:23;;;;;;;10.02;6.60;;;6.10;59.10;;;;;;4993601;28;20053;-42
2022/12/05 06:13:50;;;;;;;10.50;7.03;;;6.10;59.10;;;;;;5002161;28;20053;-43
2022/12/05 06:16:20;;;;;;;7.60;5.72;;;6.10;59.00;;;;;;5003758;28;20512;-44
2022/12/05 06:18:48;;;;;;;8.77;6.03;;;6.10;58.90;;;;;;4997097;28;20053;-44
2022/12/05 06:21:15;;;;;;;8.65;6.13;;;6.10;59.00;;;;;;4996526;28;20068;-43
2022/12/05 06:23:43;;;;;;;7.75;5.53;;;6.10;58.90;;;;;;5001530;28;20064;-41
2022/12/05 06:26:12;;;;;;;7.38;5.18;;;6.10;58.90;;;;;;5002496;28;20053;-43
2022/12/05 06:28:39;;;;;;;7.55;5.65;;;6.10;58.90;;;;;;5002969;28;20406;-43
2022/12/05 06:31:09;;;;;;;7.70;5.75;;;6.20;59.00;;;;;;4999191;28;20053;-43
2022/12/05 06:33:38;;;;;;;8.63;6.28;;;6.10;58.90;;;;;;5001734;28;20121;-44
2022/12/05 06:36:07;;;;;;;9.27;6.20;;;6.10;58.90;;;;;;5003795;28;20045;-43
2022/12/05 06:38:34;;;;;;;8.85;5.60;;;6.20;59.00;;;;;;5000439;28;20058;-42
2022/12/05 06:41:05;;;;;;;8.52;6.03;;;6.20;59.00;;;;;;4998168;28;20418;-42
2022/12/05 06:43:33;;;;;;;8.55;6.15;;;6.20;59.00;;;;;;4995579;28;20494;-43
2022/12/05 06:46:01;;;;;;;10.45;6.30;;;6.20;59.00;;;;;;4994226;28;20485;-47
2022/12/05 06:48:29;;;;;;;7.72;5.50;;;6.20;59.00;;;;;;5002748;28;20062;-46
2022/12/05 06:50:57;;;;;;;10.15;5.90;;;6.20;58.90;;;;;;4999111;28;20428;-51
2022/12/05 06:53:24;;;;;;;8.77;5.78;;;6.20;58.90;;;;;;4999810;28;20064;-45
2022/12/05 06:55:58;;;;;;;7.55;5.47;;;6.20;58.90;;;;;;4993802;28;20402;-42
2022/12/05 06:58:26;;;;;;;;;;;6.20;59.00;;;;;;5000687;28;20049;-48
2022/12/05 07:03:38;;;;;;;8.07;5.90;;;6.20;58.80;;;;;;4989562;28;20062;-42
2022/12/05 07:06:08;;;;;;;8.48;5.90;;;6.20;58.90;;;;;;4998294;28;20513;-45
2022/12/05 07:08:35;;;;;;;10.52;6.50;;;6.20;58.90;;;;;;5000351;28;20049;-43
2022/12/05 07:11:03;;;;;;;8.98;5.85;;;6.20;58.90;;;;;;4998104;28;20497;-47
2022/12/05 07:13:31;;;;;;;10.65;6.55;;;6.20;59.00;;;;;;4989141;28;20057;-42
2022/12/05 07:15:59;;;;;;;9.23;6.25;;;6.20;59.00;;;;;;5002447;28;20494;-46
2022/12/05 07:18:27;;;;;;;8.30;6.22;;;6.20;59.00;;;;;;5002228;28;20053;-48
2022/12/05 07:20:58;;;;;;;12.15;6.88;;;6.20;59.00;;;;;;4996830;28;20062;-45
2022/12/05 07:23:27;;;;;;;9.93;6.70;;;6.20;59.00;;;;;;4985075;28;20528;-53
2022/12/05 07:25:54;;;;;;;9.27;6.53;;;6.20;59.00;;;;;;4994441;28;20414;-45
2022/12/05 07:28:21;;;;;;;9.57;6.22;;;6.20;59.00;;;;;;4994731;28;20065;-43
2022/12/05 07:30:49;;;;;;;9.50;6.55;;;6.20;59.00;;;;;;4998648;28;20069;-43
2022/12/05 07:33:16;;;;;;;9.90;6.78;;;6.20;59.00;;;;;;5002063;28;20557;-46
2022/12/05 07:35:43;;;;;;;9.30;6.80;;;6.30;59.00;;;;;;4994377;28;20058;-42
2022/12/05 07:38:10;;;;;;;9.13;6.50;;;6.30;59.00;;;;;;5001270;28;20061;-43
2022/12/05 07:40:39;;;;;;;10.05;6.95;;;6.30;58.90;;;;;;4996782;28;20485;-45
2022/12/05 07:43:06;;;;;;;10.07;7.47;;;6.30;58.90;;;;;;4997608;28;20059;-47
2022/12/05 07:45:35;;;;;;;8.65;6.28;;;6.20;58.80;;;;;;4997790;28;20057;-46
2022/12/05 07:48:02;;;;;;;9.93;6.57;;;6.20;58.80;;;;;;5000766;28;20057;-45
2022/12/05 07:50:29;;;;;;;9.25;6.43;;;6.30;58.80;;;;;;4999069;28;20421;-47
2022/12/05 07:52:56;;;;;;;11.02;7.43;;;6.20;58.70;;;;;;5003392;28;20058;-45
2022/12/05 07:55:24;;;;;;;12.73;7.82;;;6.20;58.70;;;;;;5006637;28;20065;-45
2022/12/05 07:57:52;;;;;;;69.97;7.40;;;6.20;58.70;;;;;;5001110;28;20517;-46
2022/12/05 08:00:21;;;;;;;6.88;4.88;;;6.20;58.60;;;;;;4994085;28;20057;-44
2022/12/05 08:02:49;;;;;;;50.47;6.95;;;6.20;58.60;;;;;;5004286;28;20057;-47
2022/12/05 08:05:16;;;;;;;40.70;6.90;;;6.10;58.60;;;;;;5001387;28;20682;-50
2022/12/05 08:07:44;;;;;;;160.38;9.18;;;6.10;58.70;;;;;;4994456;28;20046;-47
2022/12/05 08:10:11;;;;;;;45.10;6.78;;;6.10;58.70;;;;;;5003989;28;20540;-45
2022/12/05 08:12:38;;;;;;;157.20;9.48;;;6.00;58.70;;;;;;5004927;28;20065;-44
2022/12/05 08:15:09;;;;;;;57.38;7.07;;;6.00;58.80;;;;;;5003715;28;20054;-42
2022/12/05 08:17:36;;;;;;;18.45;7.25;;;6.00;58.80;;;;;;5004899;28;20057;-44
2022/12/05 08:20:04;;;;;;;44.42;7.82;;;6.00;58.90;;;;;;5002843;28;20061;-50
2022/12/05 08:22:31;;;;;;;14.65;8.10;;;5.90;58.90;;;;;;4998929;28;20486;-45
2022/12/05 08:24:59;;;;;;;80.07;9.48;;;5.90;58.90;;;;;;4998990;28;20054;-48
2022/12/05 08:27:26;;;;;;;94.55;10.68;;;5.90;59.00;;;;;;5003765;28;20057;-51
2022/12/05 08:29:54;;;;;;;42.22;9.82;;;5.80;59.10;;;;;;5000411;28;20417;-45
2022/12/05 08:32:22;;;;;;;111.82;10.55;;;5.80;59.10;;;;;;4996292;28;20046;-46
2022/12/05 08:34:50;;;;;;;84.28;11.45;;;5.80;59.20;;;;;;5004619;28;20054;-46
2022/12/05 08:37:17;;;;;;;65.57;9.90;;;5.70;59.20;;;;;;5004438;28;20057;-50
2022/12/05 08:39:44;;;;;;;145.05;12.07;;;5.80;59.30;;;;;;5003545;28;20065;-51
2022/12/05 08:42:11;;;;;;;13.35;8.98;;;5.70;59.30;;;;;;4996227;28;20057;-48
2022/12/05 08:44:39;;;;;;;14.60;9.45;;;5.70;59.40;;;;;;5005751;28;20054;-51
2022/12/05 08:47:06;;;;;;;13.25;8.95;;;5.70;59.50;;;;;;4998719;28;20402;-51
2022/12/05 08:49:34;;;;;;;20.02;8.48;;;5.70;59.60;;;;;;4999380;28;20045;-47
2022/12/05 08:52:02;;;;;;;12.10;8.02;;;5.70;59.70;;;;;;4998350;28;20060;-42
2022/12/05 08:54:29;;;;;;;11.82;8.00;;;5.70;59.60;;;;;;5003447;28;21444;-44
2022/12/05 08:56:56;;;;;;;12.40;8.98;;;5.80;59.70;;;;;;4996895;28;20406;-46
2022/12/05 08:59:23;;;;;;;11.60;8.43;;;5.80;59.80;;;;;;5005085;28;20502;-44
2022/12/05 09:01:51;;;;;;;15.77;9.68;;;5.80;59.70;;;;;;4999474;28;20065;-44
2022/12/05 09:04:18;;;;;;;12.57;8.80;;;5.80;59.70;;;;;;5003496;28;20070;-43
2022/12/05 09:06:46;;;;;;;87.20;10.57;;;5.80;59.60;;;;;;5002438;28;20410;-44
2022/12/05 09:09:14;;;;;;;37.33;9.27;;;5.80;59.60;;;;;;5000891;28;20665;-44
2022/12/05 09:11:45;;;;;;;10.40;7.25;;;5.80;60.10;;;;;;5000440;28;20053;-46
2022/12/05 09:14:13;;;;;;;21.35;9.23;;;5.80;59.60;;;;;;5003886;28;20124;-44
2022/12/05 09:16:43;;;;;;;12.05;7.68;;;5.80;59.60;;;;;;5002095;28;20068;-45
2022/12/05 09:19:13;;;;;;;11.40;7.70;;;5.80;59.60;;;;;;4999511;28;20054;-45
2022/12/05 09:21:41;;;;;;;12.35;7.50;;;5.80;59.60;;;;;;4999548;28;20489;-44
2022/12/05 09:24:10;;;;;;;12.43;7.88;;;5.80;59.60;;;;;;5001208;28;20061;-45
2022/12/05 09:26:37;;;;;;;13.30;8.13;;;5.80;59.70;;;;;;4995469;28;20391;-44
2022/12/05 09:29:04;;;;;;;11.13;7.22;;;5.90;59.80;;;;;;5003897;28;20057;-51
2022/12/05 09:31:32;;;;;;;11.68;7.60;;;5.90;60.50;;;;;;5000668;28;20386;-49
2022/12/05 09:34:01;;;;;;;10.98;7.20;;;5.90;60.00;;;;;;4996952;28;20062;-44
2022/12/05 09:36:30;;;;;;;9.18;7.30;;;5.90;60.10;;;;;;4994876;28;20064;-43
2022/12/05 09:39:02;;;;;;;10.73;7.43;;;6.00;60.90;;;;;;5000446;28;20054;-41
2022/12/05 09:42:04;;;;;;;13.13;7.47;;;6.00;60.20;;;;;;4998439;28;20506;-43
2022/12/05 09:44:44;;;;;;;9.93;6.95;;;6.10;60.20;;;;;;4975140;28;20828;-43
2022/12/05 09:47:23;;;;;;;9.30;6.35;;;6.10;60.20;;;;;;4999537;28;20489;-43
2022/12/05 09:49:55;;;;;;;9.38;6.88;;;6.20;60.10;;;;;;4995902;28;20054;-42
2022/12/05 09:52:26;;;;;;;10.77;7.40;;;6.20;60.00;;;;;;4998223;28;20065;-44
2022/12/05 09:54:54;;;;;;;9.43;6.75;;;6.30;60.00;;;;;;4998179;28;20061;-43
2022/12/05 09:57:38;;;;;;;10.70;7.05;;;6.30;59.90;;;;;;5002965;28;20053;-48
2022/12/05 10:00:09;;;;;;;9.95;6.40;;;6.40;59.90;;;;;;5002345;28;20065;-43
2022/12/05 10:02:46;;;;;;;9.93;6.78;;;6.40;59.80;;;;;;4992947;28;20064;-48
2022/12/05 10:05:19;;;;;;;10.50;7.50;;;6.40;59.70;;;;;;5002553;28;20054;-48
2022/12/05 10:07:57;;;;;;;11.27;7.60;;;6.40;59.70;;;;;;4999606;28;20053;-49
2022/12/05 10:10:39;;;;;;;10.70;7.07;;;6.50;59.70;;;;;;4999140;28;20054;-44
2022/12/05 10:13:28;;;;;;;10.52;7.03;;;6.50;59.70;;;;;;4989769;28;20054;-45
2022/12/05 10:16:00;;;;;;;9.85;7.13;;;6.50;59.60;;;;;;4985422;28;20517;-48
2022/12/05 10:18:33;;;;;;;8.98;6.72;;;6.60;59.60;;;;;;4974973;28;20061;-45
2022/12/05 10:21:05;;;;;;;9.15;7.05;;;6.60;59.60;;;;;;4976427;28;20053;-50
2022/12/05 10:23:38;;;;;;;9.07;6.53;;;6.60;59.50;;;;;;4976784;28;20501;-45
2022/12/05 10:26:09;;;;;;;10.80;7.30;;;6.60;59.50;;;;;;4983174;28;20054;-48
2022/12/05 10:28:46;;;;;;;10.93;7.53;;;6.70;59.50;;;;;;4981830;28;20524;-47
2022/12/05 10:31:18;;;;;;;14.07;8.43;;;6.70;59.30;;;;;;4975909;28;20058;-48
2022/12/05 10:33:49;;;;;;;18.58;9.50;;;6.70;59.10;;;;;;4982150;28;20062;-48
2022/12/05 10:36:16;;;;;;;34.42;9.60;;;6.70;58.90;;;;;;4983273;28;20532;-46
2022/12/05 10:38:45;;;;;;;11.48;8.02;;;6.70;58.90;;;;;;4979204;28;20492;-46
2022/12/05 10:41:14;;;;;;;14.45;9.40;;;6.60;58.80;;;;;;4981532;28;20418;-47
2022/12/05 10:43:44;;;;;;;49.35;10.75;;;6.60;58.90;;;;;;4980453;28;20497;-47
2022/12/05 10:46:13;;;;;;;90.57;10.63;;;6.60;58.90;;;;;;4977705;28;20045;-47
2022/12/05 10:48:41;;;;;;;12.68;8.60;;;6.60;58.90;;;;;;4982185;28;20055;-44
2022/12/05 10:51:15;;;;;;;11.85;8.60;;;6.60;59.00;;;;;;4983423;28;20058;-45
2022/12/05 10:53:44;;;;;;;13.67;8.40;;;6.50;59.10;;;;;;4982730;28;20054;-44
2022/12/05 10:56:37;;;;;;;12.05;8.18;;;6.50;59.20;;;;;;4984599;28;20065;-47
2022/12/05 10:59:07;;;;;;;11.55;8.07;;;6.50;59.40;;;;;;5000555;28;20054;-46
2022/12/05 11:01:36;;;;;;;15.82;10.10;;;6.60;59.50;;;;;;4991414;28;20046;-48
2022/12/05 11:04:10;;;;;;;14.35;9.85;;;6.60;59.60;;;;;;4980530;28;20049;-44
2022/12/05 11:06:37;;;;;;;13.52;9.27;;;6.60;59.60;;;;;;4979180;28;20058;-47
2022/12/05 11:09:13;;;;;;;12.35;8.43;;;6.60;59.50;;;;;;4979445;28;20487;-45
2022/12/05 11:11:40;;;;;;;11.50;8.25;;;6.60;59.60;;;;;;4976768;28;20065;-48
2022/12/05 11:14:22;;;;;;;13.73;9.68;;;6.60;59.60;;;;;;4977320;28;20066;-45
2022/12/05 11:16:53;;;;;;;14.98;8.75;;;6.60;59.70;;;;;;4976561;28;20054;-50
2022/12/05 11:19:27;;;;;;;48.95;10.05;;;6.70;59.60;;;;;;4978811;28;20418;-47
2022/12/05 11:21:55;;;;;;;45.43;11.00;;;6.70;59.50;;;;;;4980954;28;20054;-43
2022/12/05 11:24:26;;;;;;;46.45;10.73;;;6.70;59.40;;;;;;4977597;28;20485;-46
2022/12/05 11:26:54;;;;;;;62.15;10.73;;;6.70;59.40;;;;;;4985206;28;20046;-47
2022/12/05 11:29:37;;;;;;;14.63;9.68;;;6.70;59.40;;;;;;4990913;28;20050;-48
2022/12/05 11:32:15;;;;;;;17.80;9.60;;;6.70;59.40;;;;;;5002175;28;20061;-47
2022/12/05 11:34:48;;;;;;;14.30;8.73;;;6.70;59.40;;;;;;5000877;28;20053;-44
2022/12/05 11:37:22;;;;;;;13.93;8.48;;;6.70;59.40;;;;;;5003170;28;20524;-44
2022/12/05 11:39:49;;;;;;;12.32;8.15;;;6.70;59.50;;;;;;4995134;28;20054;-47
2022/12/05 11:42:28;;;;;;;12.88;8.05;;;6.70;59.60;;;;;;4990293;28;20088;-44
2022/12/05 11:45:24;;;;;;;14.23;8.60;;;6.70;59.80;;;;;;5001864;28;20314;-47
2022/12/05 11:48:13;;;;;;;11.93;7.90;;;6.70;59.90;;;;;;4992312;28;20050;-46
2022/12/05 11:50:48;;;;;;;11.18;6.68;;;6.70;59.80;;;;;;5000757;28;20050;-48
2022/12/05 11:53:33;;;;;;;13.20;8.30;;;6.70;59.80;;;;;;4989692;28;20053;-50
2022/12/05 11:56:10;;;;;;;11.75;7.55;;;6.70;60.00;;;;;;4995700;28;20502;-48
2022/12/05 11:59:00;;;;;;;13.73;7.72;;;6.70;60.00;;;;;;5004240;28;20458;-45
2022/12/05 12:01:40;;;;;;;11.93;7.78;;;6.80;60.00;;;;;;4994223;28;20054;-47
2022/12/05 12:04:34;;;;;;;11.30;7.80;;;6.80;59.90;;;;;;4991661;28;20063;-48
2022/12/05 12:07:22;;;;;;;12.30;7.88;;;6.80;59.80;;;;;;4994825;28;20049;-45
2022/12/05 12:09:58;;;;;;;12.48;8.13;;;6.80;59.80;;;;;;5001928;28;20065;-44
2022/12/05 12:12:31;;;;;;;16.20;9.68;;;6.70;59.70;;;;;;5003812;28;20394;-48
2022/12/05 12:15:12;;;;;;;14.77;9.95;;;6.70;59.80;;;;;;5003330;28;20069;-49
2022/12/05 12:17:49;;;;;;;13.40;8.23;;;6.60;59.90;;;;;;5001521;28;20417;-47
2022/12/05 12:20:33;;;;;;;14.57;9.38;;;6.70;60.10;;;;;;4998876;28;20065;-49
2022/12/05 12:23:18;;;;;;;14.20;9.55;;;6.60;60.20;;;;;;4994609;28;20496;-46
2022/12/05 12:25:49;;;;;;;;;;;6.60;60.20;;;;;;5002064;28;20076;-48
2022/12/05 12:28:29;;;;;;;15.15;9.90;;;6.60;60.20;;;;;;5002573;28;19929;-47
2022/12/05 12:31:07;;;;;;;15.10;9.38;;;6.60;60.10;;;;;;5004809;28;20061;-47
2022/12/05 12:33:43;;;;;;;13.57;9.13;;;6.60;60.30;;;;;;5002941;28;20054;-49
2022/12/05 12:36:18;;;;;;;18.80;9.75;;;6.60;60.40;;;;;;5002071;28;20061;-47
2022/12/05 12:39:02;;;;;;;12.95;8.90;;;6.60;60.60;;;;;;4997463;28;20049;-45
2022/12/05 12:42:05;;;;;;;12.50;9.00;;;6.60;60.60;;;;;;4998309;28;20074;-46
2022/12/05 12:45:00;;;;;;;12.60;8.65;;;6.60;60.70;;;;;;4967442;28;20050;-49
2022/12/05 12:47:38;;;;;;;9.93;7.13;;;6.60;60.60;;;;;;4996439;28;20046;-47
2022/12/05 12:50:14;;;;;;;10.90;7.10;;;6.60;60.70;;;;;;5003320;28;20053;-45
2022/12/05 12:53:07;;;;;;;9.93;7.22;;;6.60;61.00;;;;;;5002895;28;20064;-47
2022/12/05 12:55:42;;;;;;;12.32;8.80;;;6.60;61.00;;;;;;5003421;28;20050;-44
2022/12/05 12:58:19;;;;;;;13.75;8.15;;;6.60;60.90;;;;;;4997227;28;20056;-43
2022/12/05 13:00:55;;;;;;;13.88;8.73;;;6.60;60.70;;;;;;5001339;28;20859;-48
2022/12/05 13:03:27;;;;;;;12.25;9.18;;;6.60;60.60;;;;;;5001781;28;20065;-47
2022/12/05 13:06:00;;;;;;;11.43;7.47;;;6.60;60.40;;;;;;5002605;28;20069;-49
2022/12/05 13:08:33;;;;;;;9.32;7.28;;;6.50;60.50;;;;;;5001297;28;20054;-47
2022/12/05 13:11:05;;;;;;;10.32;8.05;;;6.60;60.80;;;;;;5001239;28;20057;-50
2022/12/05 13:13:36;;;;;;;9.10;6.70;;;6.50;60.90;;;;;;5001754;28;20057;-46
2022/12/05 13:16:07;;;;;;;10.20;7.70;;;6.50;60.90;;;;;;5001892;28;20058;-48
2022/12/05 13:18:35;;;;;;;9.90;7.43;;;6.60;61.00;;;;;;5002370;28;20054;-46
2022/12/05 13:21:07;;;;;;;9.82;7.05;;;6.60;61.00;;;;;;5000310;28;20118;-45